CYEG

Edmonton International Airport

Edmonton, Alberta, Canada
METAR CYEG 210700Z 26014G29KT 15SM -SHRA FEW090TCU BKN110 16/08 A2978 RMK TCU2ACC5 SLP087 DENSITY ALT 3200FT
Observed Flight Rules
May-21 @ 07:00 UTC (15 minutes ago) Visual Flight Rules
Wind Visibility Clouds Conditions
260° at 14 knots
 Gusting to 29 knots
15 miles
  • Few at 9,000' AGL
  • Broken at 11,000' AGL
  • Light Rain
Temperatures Readings
Current 16°C / 61°F
Dewpoint 8°C / 46°F
Humidity 59%
Altimeter 29.78" Hg
Pressure 1008.7 hPa
Elevation 723
METAR CYEG 210700Z 26014G29KT 15SM -SHRA FEW090TCU BKN110 16/08 A2978 RMK TCU2ACC5 SLP087 DENSITY ALT 3200FT
Observed Flight Rules
May-21 @ 07:00 UTC
(15 minutes ago)
VFR
Wind Visibility
260° at 14 knots
 Gusting to 29 knots
15 miles
Clouds
  • Few at 9,000' AGL
  • Broken at 11,000' AGL
Conditions
  • Light Rain
Temperature Dewpoint
16°C / 61°F 8°C / 46°F
Humidity Altimeter Pressure
59% 29.78" Hg 1008.7 hPa